createdAt,value
2023-10-22T00:01:31.136Z,1.33
2023-10-22T00:03:58.247Z,1.52
2023-10-22T00:06:25.279Z,0.68
2023-10-22T00:08:52.339Z,0.68
2023-10-22T00:11:19.389Z,0.70
2023-10-22T00:13:46.227Z,1.45
2023-10-22T00:16:13.263Z,1.05
2023-10-22T00:18:40.106Z,1.10
2023-10-22T00:21:10.218Z,1.17
2023-10-22T00:27:25.173Z,0.82
2023-10-22T00:29:52.228Z,1.30
2023-10-22T00:32:19.129Z,0.95
2023-10-22T00:34:45.975Z,1.08
2023-10-22T00:37:13.190Z,1.58
2023-10-22T00:39:40.039Z,1.10
2023-10-22T00:42:06.997Z,0.82
2023-10-22T00:44:34.014Z,1.17
2023-10-22T00:47:01.155Z,0.80
2023-10-22T00:49:28.163Z,1.02
2023-10-22T00:51:55.853Z,1.30
2023-10-22T00:54:23.301Z,0.80
2023-10-22T00:56:52.666Z,0.77
2023-10-22T00:59:20.000Z,0.60
2023-10-22T01:01:47.251Z,0.65
2023-10-22T01:04:14.283Z,1.40
2023-10-22T01:06:41.359Z,1.35
2023-10-22T01:09:11.264Z,0.98
2023-10-22T01:11:57.526Z,0.82
2023-10-22T01:14:24.287Z,0.60
2023-10-22T01:16:51.158Z,0.80
2023-10-22T01:19:20.821Z,1.10
2023-10-22T01:21:47.757Z,0.98
2023-10-22T01:24:14.909Z,0.70
2023-10-22T01:26:46.347Z,1.20
2023-10-22T01:29:13.457Z,0.63
2023-10-22T01:31:40.585Z,1.23
2023-10-22T01:34:07.656Z,1.50
2023-10-22T01:36:34.558Z,0.70
2023-10-22T01:39:01.717Z,0.60
2023-10-22T01:41:28.636Z,0.80
2023-10-22T01:43:57.315Z,1.05
2023-10-22T01:46:24.304Z,0.95
2023-10-22T01:48:51.232Z,1.10
2023-10-22T01:51:18.331Z,1.40
2023-10-22T01:53:45.365Z,1.30
2023-10-22T01:56:12.168Z,0.75
2023-10-22T01:58:39.584Z,1.08
2023-10-22T02:01:07.347Z,0.85
2023-10-22T02:03:35.674Z,0.90
2023-10-22T02:06:10.927Z,0.80
2023-10-22T02:08:38.226Z,0.75
2023-10-22T02:11:05.123Z,1.02
2023-10-22T02:13:32.297Z,0.70
2023-10-22T02:15:59.340Z,1.20
2023-10-22T02:18:26.503Z,1.52
2023-10-22T02:20:59.107Z,0.70
2023-10-22T02:23:26.476Z,1.23
2023-10-22T02:25:53.414Z,0.60
2023-10-22T02:28:20.727Z,0.70
2023-10-22T02:30:51.988Z,0.70
2023-10-22T02:33:19.111Z,0.70
2023-10-22T02:35:46.998Z,0.55
2023-10-22T02:38:16.488Z,1.20
2023-10-22T02:40:44.759Z,1.35
2023-10-22T02:43:13.078Z,0.70
2023-10-22T02:45:52.717Z,0.93
2023-10-22T02:48:19.998Z,0.60
2023-10-22T02:50:47.515Z,1.25
2023-10-22T02:53:14.948Z,0.90
2023-10-22T02:55:41.811Z,1.02
2023-10-22T02:58:08.584Z,0.50
2023-10-22T03:00:37.528Z,0.68
2023-10-22T03:03:05.558Z,0.57
2023-10-22T03:05:37.425Z,0.70
2023-10-22T03:08:04.952Z,1.35
2023-10-22T03:10:32.027Z,1.38
2023-10-22T03:13:01.118Z,0.95
2023-10-22T03:15:29.112Z,0.70
2023-10-22T03:17:58.435Z,0.73
2023-10-22T03:20:25.979Z,0.70
2023-10-22T03:22:53.230Z,1.50
2023-10-22T03:25:23.359Z,0.73
2023-10-22T03:27:50.899Z,1.10
2023-10-22T03:30:18.748Z,0.88
2023-10-22T03:32:46.379Z,0.82
2023-10-22T03:35:14.394Z,0.80
2023-10-22T03:37:41.918Z,1.42
2023-10-22T03:40:11.130Z,0.70
2023-10-22T03:42:38.355Z,0.85
2023-10-22T03:45:07.275Z,0.90
2023-10-22T03:47:34.298Z,1.10
2023-10-22T03:50:01.183Z,0.60
2023-10-22T03:52:30.277Z,1.60
2023-10-22T03:54:58.157Z,1.83
2023-10-22T03:57:25.372Z,0.80
2023-10-22T03:59:52.455Z,0.70
2023-10-22T04:02:19.517Z,1.23
2023-10-22T04:04:46.553Z,1.10
2023-10-22T04:07:13.553Z,0.80
2023-10-22T04:09:40.400Z,1.02
2023-10-22T04:12:07.740Z,1.08
2023-10-22T04:14:35.846Z,1.10
2023-10-22T04:17:03.013Z,1.25
2023-10-22T04:19:30.080Z,0.73
2023-10-22T04:21:56.887Z,1.02
2023-10-22T04:24:23.640Z,1.15
2023-10-22T04:26:50.621Z,1.60
2023-10-22T04:29:17.551Z,1.67
2023-10-22T04:31:44.255Z,0.90
2023-10-22T04:34:11.290Z,0.98
2023-10-22T04:36:38.044Z,0.93
2023-10-22T04:39:04.837Z,1.90
2023-10-22T04:41:31.720Z,0.90
2023-10-22T04:43:58.656Z,0.90
2023-10-22T04:46:26.108Z,0.82
2023-10-22T04:48:53.116Z,1.00
2023-10-22T04:51:20.085Z,1.63
2023-10-22T04:53:46.986Z,1.20
2023-10-22T04:56:13.775Z,1.33
2023-10-22T04:58:40.565Z,1.58
2023-10-22T05:01:07.413Z,1.60
2023-10-22T05:03:34.606Z,1.60
2023-10-22T05:06:09.733Z,1.73
2023-10-22T05:08:38.058Z,0.80
2023-10-22T05:11:07.049Z,1.80
2023-10-22T05:13:34.106Z,1.52
2023-10-22T05:16:01.088Z,1.00
2023-10-22T05:18:28.213Z,1.77
2023-10-22T05:21:03.099Z,1.92
2023-10-22T05:23:30.250Z,1.13
2023-10-22T05:26:23.560Z,0.82
2023-10-22T05:28:50.363Z,1.65
2023-10-22T05:31:19.651Z,1.90
2023-10-22T05:33:47.347Z,1.58
2023-10-22T05:36:22.835Z,1.40
2023-10-22T05:38:50.247Z,1.60
2023-10-22T05:41:23.913Z,0.88
2023-10-22T05:43:57.830Z,1.80
2023-10-22T05:46:24.962Z,0.95
2023-10-22T05:48:51.868Z,1.50
2023-10-22T05:51:19.168Z,1.70
2023-10-22T05:53:46.772Z,1.60
2023-10-22T05:56:13.606Z,2.10
2023-10-22T05:58:40.617Z,0.80
2023-10-22T06:01:09.926Z,1.25
2023-10-22T06:03:37.086Z,1.60
2023-10-22T06:06:04.612Z,1.52
2023-10-22T06:08:31.564Z,0.98
2023-10-22T06:10:58.356Z,0.80
2023-10-22T06:13:25.500Z,1.02
2023-10-22T06:15:57.446Z,1.55
2023-10-22T06:18:24.475Z,1.55
2023-10-22T06:20:51.364Z,1.30
2023-10-22T06:23:18.156Z,1.90
2023-10-22T06:25:45.611Z,1.75
2023-10-22T06:28:12.843Z,1.70
2023-10-22T06:30:39.714Z,1.65
2023-10-22T06:33:06.529Z,1.80
2023-10-22T06:35:33.849Z,1.70
2023-10-22T06:38:00.606Z,1.08
2023-10-22T06:40:27.397Z,1.80
2023-10-22T06:42:54.281Z,1.63
2023-10-22T06:45:21.221Z,1.77
2023-10-22T06:47:48.494Z,1.80
2023-10-22T06:50:16.461Z,1.60
2023-10-22T06:52:43.930Z,2.10
2023-10-22T06:55:11.657Z,2.15
2023-10-22T06:57:39.770Z,2.13
2023-10-22T07:00:11.038Z,2.13
2023-10-22T07:02:39.133Z,1.27
2023-10-22T07:05:08.680Z,1.45
2023-10-22T07:07:35.578Z,1.63
2023-10-22T07:10:02.287Z,1.70
2023-10-22T07:12:29.184Z,1.90
2023-10-22T07:14:56.630Z,1.35
2023-10-22T07:17:23.733Z,1.77
2023-10-22T07:19:50.661Z,1.50
2023-10-22T07:22:17.473Z,1.70
2023-10-22T07:24:44.832Z,1.67
2023-10-22T07:27:11.733Z,1.90
2023-10-22T07:29:38.621Z,1.85
2023-10-22T07:32:05.958Z,1.77
2023-10-22T07:34:32.825Z,1.55
2023-10-22T07:36:59.598Z,1.70
2023-10-22T07:39:26.436Z,1.80
2023-10-22T07:41:53.419Z,1.80
2023-10-22T07:44:20.359Z,1.90
2023-10-22T07:46:47.127Z,1.77
2023-10-22T07:49:13.977Z,1.83
2023-10-22T07:51:40.785Z,2.03
2023-10-22T07:54:08.974Z,1.60
2023-10-22T07:56:35.915Z,1.80
2023-10-22T07:59:03.345Z,1.63
2023-10-22T08:01:30.274Z,1.73
2023-10-22T08:03:57.258Z,2.10
2023-10-22T08:06:24.140Z,1.90
2023-10-22T08:08:55.775Z,2.40
2023-10-22T08:11:23.158Z,1.73
2023-10-22T08:13:50.034Z,1.30
2023-10-22T08:16:16.925Z,1.63
2023-10-22T08:18:45.076Z,1.90
2023-10-22T08:21:12.361Z,2.10
2023-10-22T08:23:40.114Z,1.85
2023-10-22T08:26:07.606Z,1.60
2023-10-22T08:28:36.513Z,2.00
2023-10-22T08:31:03.636Z,2.42
2023-10-22T08:33:33.019Z,2.75
2023-10-22T08:36:07.515Z,2.35
2023-10-22T08:38:34.411Z,2.10
2023-10-22T08:41:07.498Z,3.10
2023-10-22T08:43:38.642Z,2.53
2023-10-22T08:46:06.637Z,2.22
2023-10-22T08:48:34.314Z,1.90
2023-10-22T08:51:01.944Z,2.10
2023-10-22T08:53:28.933Z,1.60
2023-10-22T08:55:57.800Z,1.70
2023-10-22T08:58:24.754Z,2.00
2023-10-22T09:00:51.657Z,1.70
2023-10-22T09:03:19.998Z,1.80
2023-10-22T09:05:47.897Z,1.90
2023-10-22T09:08:16.442Z,1.90
2023-10-22T09:10:44.214Z,1.83
2023-10-22T09:13:16.746Z,2.13
2023-10-22T09:15:49.123Z,2.20
2023-10-22T09:18:17.131Z,1.60
2023-10-22T09:20:46.293Z,1.70
2023-10-22T09:23:23.618Z,1.90
2023-10-22T09:25:52.414Z,1.70
2023-10-22T09:28:23.375Z,1.83
2023-10-22T09:30:57.178Z,1.85
2023-10-22T09:33:45.274Z,1.70
2023-10-22T09:36:13.705Z,1.77
2023-10-22T09:38:44.832Z,2.13
2023-10-22T09:41:13.707Z,1.90
2023-10-22T09:43:42.707Z,1.65
2023-10-22T09:46:09.760Z,1.85
2023-10-22T09:48:37.124Z,1.95
2023-10-22T09:51:06.460Z,1.83
2023-10-22T09:53:40.375Z,2.00
2023-10-22T09:56:12.254Z,1.88
2023-10-22T09:58:46.401Z,2.15
2023-10-22T10:01:15.397Z,1.70
2023-10-22T10:03:43.550Z,1.90
2023-10-22T10:06:11.045Z,1.95
2023-10-22T10:08:39.804Z,1.90
2023-10-22T10:11:09.711Z,1.98
2023-10-22T10:13:36.710Z,1.70
2023-10-22T10:16:05.390Z,1.70
2023-10-22T10:19:00.324Z,1.70
2023-10-22T10:21:42.357Z,1.90
2023-10-22T10:24:30.209Z,1.63
2023-10-22T10:26:57.662Z,1.77
2023-10-22T10:29:26.644Z,1.70
2023-10-22T10:31:55.287Z,1.40
2023-10-22T10:34:37.740Z,1.50
2023-10-22T10:37:11.237Z,1.40
2023-10-22T10:39:43.404Z,2.00
2023-10-22T10:42:15.515Z,1.80
2023-10-22T10:45:00.717Z,1.45
2023-10-22T10:47:29.159Z,1.60
2023-10-22T10:50:08.158Z,1.63
2023-10-22T10:52:44.049Z,1.67
2023-10-22T10:55:17.125Z,2.03
2023-10-22T10:57:49.508Z,1.98
2023-10-22T11:00:22.829Z,1.65
2023-10-22T11:02:51.637Z,1.48
2023-10-22T11:05:37.631Z,2.00
2023-10-22T11:08:05.704Z,1.60
2023-10-22T11:10:32.601Z,1.80
2023-10-22T11:13:07.626Z,1.75
2023-10-22T11:15:36.528Z,2.17
2023-10-22T11:18:05.785Z,1.90
2023-10-22T11:20:33.654Z,2.22
2023-10-22T11:23:01.220Z,1.80
2023-10-22T11:25:29.496Z,1.63
2023-10-22T11:27:57.103Z,1.55
2023-10-22T11:30:53.116Z,2.10
2023-10-22T11:33:31.285Z,1.80
2023-10-22T11:35:58.125Z,2.10
2023-10-22T11:38:25.114Z,2.20
2023-10-22T11:40:56.604Z,1.95
2023-10-22T11:43:24.630Z,1.90
2023-10-22T11:45:53.670Z,1.80
2023-10-22T11:48:22.233Z,1.80
2023-10-22T11:50:50.717Z,2.20
2023-10-22T11:53:18.315Z,1.80
2023-10-22T11:55:46.752Z,2.40
2023-10-22T11:58:18.780Z,1.98
2023-10-22T12:00:49.313Z,1.98
2023-10-22T12:03:16.993Z,1.70
2023-10-22T12:05:44.094Z,1.88
2023-10-22T12:08:10.982Z,1.83
2023-10-22T12:10:38.012Z,1.83
2023-10-22T12:13:07.906Z,2.25
2023-10-22T12:15:36.333Z,2.10
2023-10-22T12:18:04.268Z,2.10
2023-10-22T12:20:31.675Z,1.63
2023-10-22T12:22:58.782Z,2.30
2023-10-22T12:25:25.593Z,1.80
2023-10-22T12:27:52.714Z,2.05
2023-10-22T12:30:19.960Z,1.90
2023-10-22T12:32:47.739Z,2.00
2023-10-22T12:35:15.410Z,2.20
2023-10-22T12:37:42.477Z,1.88
2023-10-22T12:40:10.422Z,1.92
2023-10-22T12:42:42.407Z,1.73
2023-10-22T12:45:13.056Z,2.20
2023-10-22T12:47:41.161Z,2.20
2023-10-22T12:50:08.356Z,1.58
2023-10-22T12:52:36.615Z,1.92
2023-10-22T12:55:03.871Z,2.03
2023-10-22T12:57:31.060Z,1.77
2023-10-22T12:59:57.986Z,1.90
2023-10-22T13:02:24.884Z,2.00
2023-10-22T13:04:51.805Z,1.58
2023-10-22T13:07:19.835Z,1.70
2023-10-22T13:09:47.201Z,1.52
2023-10-22T13:12:14.012Z,2.05
2023-10-22T13:14:40.902Z,1.80
2023-10-22T13:17:07.915Z,2.13
2023-10-22T13:19:34.909Z,2.13
2023-10-22T13:22:01.826Z,2.00
2023-10-22T13:24:28.696Z,1.90
2023-10-22T13:26:55.589Z,1.65
2023-10-22T13:29:22.541Z,2.10
2023-10-22T13:31:49.852Z,1.90
2023-10-22T13:34:16.582Z,1.98
2023-10-22T13:36:43.344Z,2.00
2023-10-22T13:39:10.670Z,1.90
2023-10-22T13:41:37.814Z,2.20
2023-10-22T13:44:05.938Z,1.95
2023-10-22T13:46:33.020Z,1.60
2023-10-22T13:49:00.210Z,1.95
2023-10-22T13:51:27.124Z,1.90
2023-10-22T13:53:53.945Z,2.00
2023-10-22T13:56:20.710Z,1.80
2023-10-22T13:58:47.613Z,1.67
2023-10-22T14:01:14.828Z,1.85
2023-10-22T14:03:43.654Z,1.77
2023-10-22T14:06:10.746Z,1.73
2023-10-22T14:08:37.552Z,1.85
2023-10-22T14:11:04.679Z,1.70
2023-10-22T14:13:31.594Z,1.60
2023-10-22T14:16:08.148Z,1.35
2023-10-22T14:18:35.067Z,1.60
2023-10-22T14:21:11.874Z,1.40
2023-10-22T14:23:38.998Z,1.40
2023-10-22T14:26:05.887Z,1.83
2023-10-22T14:28:32.986Z,1.38
2023-10-22T14:31:00.153Z,1.40
2023-10-22T14:33:27.075Z,1.75
2023-10-22T14:36:06.837Z,1.30
2023-10-22T14:38:34.031Z,1.35
2023-10-22T14:41:02.559Z,1.20
2023-10-22T14:43:29.798Z,1.42
2023-10-22T14:46:03.287Z,1.25
2023-10-22T14:48:31.376Z,2.53
2023-10-22T14:51:00.385Z,2.45
2023-10-22T14:53:27.722Z,1.35
2023-10-22T14:55:58.874Z,1.27
2023-10-22T14:58:26.296Z,1.45
2023-10-22T15:00:53.379Z,1.00
2023-10-22T15:03:21.402Z,1.23
2023-10-22T15:05:49.899Z,1.00
2023-10-22T15:08:17.172Z,1.05
2023-10-22T15:10:45.958Z,1.27
2023-10-22T15:13:13.310Z,1.10
2023-10-22T15:15:40.994Z,1.00
2023-10-22T15:18:08.873Z,1.40
2023-10-22T15:20:39.950Z,1.27
2023-10-22T15:23:07.793Z,1.40
2023-10-22T15:25:35.531Z,1.67
2023-10-22T15:28:03.564Z,1.50
2023-10-22T15:30:33.520Z,1.20
2023-10-22T15:33:00.413Z,1.10
2023-10-22T15:35:31.090Z,1.50
2023-10-22T15:38:03.162Z,1.30
2023-10-22T15:40:33.638Z,1.20
2023-10-22T15:43:01.053Z,1.40
2023-10-22T15:45:31.031Z,2.45
2023-10-22T15:47:59.527Z,1.45
2023-10-22T15:50:28.373Z,4.05
2023-10-22T15:52:56.067Z,1.30
2023-10-22T15:55:23.177Z,4.55
2023-10-22T15:57:52.988Z,1.40
2023-10-22T16:00:22.671Z,2.17
2023-10-22T16:02:49.720Z,2.15
2023-10-22T16:05:16.525Z,1.90
2023-10-22T16:07:43.312Z,4.03
2023-10-22T16:10:11.863Z,3.08
2023-10-22T16:12:39.725Z,2.10
2023-10-22T16:15:07.974Z,2.00
2023-10-22T16:17:41.708Z,2.10
2023-10-22T16:20:09.671Z,5.28
2023-10-22T16:22:36.833Z,5.47
2023-10-22T16:25:03.989Z,2.92
2023-10-22T16:27:31.432Z,3.55
2023-10-22T16:29:58.405Z,3.70
2023-10-22T16:32:25.438Z,4.50
2023-10-22T16:34:52.417Z,3.42
2023-10-22T16:37:19.152Z,2.00
2023-10-22T16:39:45.938Z,2.20
2023-10-22T16:42:12.871Z,5.22
2023-10-22T16:44:39.846Z,1.90
2023-10-22T16:47:06.800Z,8.32
2023-10-22T16:49:33.577Z,5.82
2023-10-22T16:52:00.476Z,2.38
2023-10-22T16:54:27.471Z,1.92
2023-10-22T16:56:54.489Z,2.00
2023-10-22T16:59:21.342Z,3.30
2023-10-22T17:01:48.126Z,3.72
2023-10-22T17:04:14.941Z,2.53
2023-10-22T17:06:42.096Z,3.63
2023-10-22T17:09:09.006Z,8.25
2023-10-22T17:11:35.945Z,6.43
2023-10-22T17:14:02.770Z,4.70
2023-10-22T17:16:30.002Z,2.95
2023-10-22T17:18:57.494Z,2.30
2023-10-22T17:21:24.581Z,2.20
2023-10-22T17:23:51.447Z,2.80
2023-10-22T17:26:18.332Z,1.70
2023-10-22T17:28:46.440Z,1.58
2023-10-22T17:31:14.912Z,1.83
2023-10-22T17:34:00.924Z,1.90
2023-10-22T17:36:29.101Z,2.05
2023-10-22T17:38:55.907Z,2.05
2023-10-22T17:41:22.767Z,2.00
2023-10-22T17:43:49.529Z,1.98
2023-10-22T17:46:16.672Z,1.90
2023-10-22T17:48:43.846Z,2.10
2023-10-22T17:51:12.439Z,2.08
2023-10-22T17:53:39.756Z,1.60
2023-10-22T17:56:11.529Z,1.80
2023-10-22T17:58:39.520Z,2.08
2023-10-22T18:01:06.826Z,1.65
2023-10-22T18:03:35.649Z,1.98
2023-10-22T18:06:03.360Z,2.00
2023-10-22T18:08:30.624Z,1.50
2023-10-22T18:10:59.089Z,1.88
2023-10-22T18:13:27.381Z,1.70
2023-10-22T18:15:55.872Z,1.80
2023-10-22T18:18:23.386Z,1.80
2023-10-22T18:20:50.333Z,1.60
2023-10-22T18:23:17.471Z,1.95
2023-10-22T18:25:46.570Z,1.98
2023-10-22T18:28:13.446Z,2.05
2023-10-22T18:30:43.431Z,2.00
2023-10-22T18:33:10.412Z,2.00
2023-10-22T18:35:37.396Z,1.85
2023-10-22T18:38:04.274Z,2.13
2023-10-22T18:40:31.275Z,2.50
2023-10-22T18:43:00.435Z,2.83
2023-10-22T18:45:27.599Z,2.90
2023-10-22T18:47:55.712Z,2.70
2023-10-22T18:50:22.666Z,2.65
2023-10-22T18:52:49.740Z,2.22
2023-10-22T18:55:16.649Z,2.53
2023-10-22T18:57:43.755Z,2.60
2023-10-22T19:00:11.787Z,2.67
2023-10-22T19:02:40.623Z,2.00
2023-10-22T19:05:08.373Z,2.00
2023-10-22T19:07:35.330Z,2.40
2023-10-22T19:10:02.295Z,1.90
2023-10-22T19:12:29.046Z,2.03
2023-10-22T19:14:56.066Z,2.30
2023-10-22T19:17:22.859Z,1.75
2023-10-22T19:19:49.892Z,1.70
2023-10-22T19:22:17.825Z,1.90
2023-10-22T19:24:44.709Z,1.70
2023-10-22T19:27:11.533Z,1.80
2023-10-22T19:29:41.384Z,1.73
2023-10-22T19:32:08.484Z,2.00
2023-10-22T19:34:37.854Z,1.80
2023-10-22T19:37:05.079Z,2.08
2023-10-22T19:39:32.289Z,1.33
2023-10-22T19:41:59.225Z,1.80
2023-10-22T19:44:26.196Z,1.70
2023-10-22T19:46:53.060Z,1.95
2023-10-22T19:49:19.763Z,2.00
2023-10-22T19:51:48.511Z,1.30
2023-10-22T19:54:15.415Z,2.17
2023-10-22T19:56:42.249Z,2.38
2023-10-22T19:59:09.199Z,2.03
2023-10-22T20:01:36.126Z,1.70
2023-10-22T20:04:03.185Z,2.35
2023-10-22T20:06:30.146Z,1.58
2023-10-22T20:08:57.151Z,2.17
2023-10-22T20:11:24.666Z,2.55
2023-10-22T20:13:52.171Z,2.28
2023-10-22T20:16:21.252Z,2.60
2023-10-22T20:18:49.609Z,2.20
2023-10-22T20:21:17.659Z,1.30
2023-10-22T20:23:48.232Z,2.30
2023-10-22T20:26:15.859Z,2.40
2023-10-22T20:28:44.199Z,2.40
2023-10-22T20:31:12.081Z,1.90
2023-10-22T20:33:40.666Z,2.33
2023-10-22T20:36:07.850Z,2.50
2023-10-22T20:38:35.111Z,2.47
2023-10-22T20:41:03.928Z,2.17
2023-10-22T20:43:30.887Z,1.60
2023-10-22T20:46:02.799Z,1.55
2023-10-22T20:48:31.288Z,1.67
2023-10-22T20:51:07.433Z,1.70
2023-10-22T20:53:36.835Z,2.20
2023-10-22T20:56:04.906Z,1.83
2023-10-22T20:58:35.306Z,1.83
2023-10-22T21:01:02.875Z,2.30
2023-10-22T21:03:29.845Z,1.52
2023-10-22T21:05:56.868Z,1.52
2023-10-22T21:08:23.742Z,2.38
2023-10-22T21:10:50.876Z,1.85
2023-10-22T21:13:17.896Z,2.20
2023-10-22T21:15:44.878Z,1.80
2023-10-22T21:18:11.751Z,2.33
2023-10-22T21:20:38.706Z,2.35
2023-10-22T21:23:05.497Z,3.08
2023-10-22T21:25:32.347Z,3.20
2023-10-22T21:27:59.180Z,2.15
2023-10-22T21:30:26.236Z,2.33
2023-10-22T21:32:53.129Z,1.75
2023-10-22T21:35:20.058Z,2.55
2023-10-22T21:37:46.843Z,1.98
2023-10-22T21:40:13.737Z,1.80
2023-10-22T21:42:40.686Z,2.40
2023-10-22T21:45:07.794Z,1.67
2023-10-22T21:47:34.625Z,2.42
2023-10-22T21:50:02.149Z,1.83
2023-10-22T21:52:29.003Z,1.95
2023-10-22T21:54:55.938Z,2.80
2023-10-22T21:57:22.850Z,1.65
2023-10-22T21:59:49.675Z,2.80
2023-10-22T22:02:16.666Z,1.98
2023-10-22T22:04:43.549Z,2.30
2023-10-22T22:07:10.564Z,1.98
2023-10-22T22:09:38.736Z,3.20
2023-10-22T22:12:07.524Z,1.63
2023-10-22T22:14:34.481Z,2.70
2023-10-22T22:17:01.364Z,2.97
2023-10-22T22:19:28.147Z,1.83
2023-10-22T22:21:54.936Z,2.00
2023-10-22T22:24:21.876Z,3.00
2023-10-22T22:26:48.735Z,2.17
2023-10-22T22:29:15.568Z,2.45
2023-10-22T22:31:42.478Z,2.15
2023-10-22T22:34:28.446Z,3.15
2023-10-22T22:36:55.411Z,2.08
2023-10-22T22:39:22.221Z,2.05
2023-10-22T22:41:49.813Z,2.03
2023-10-22T22:44:16.618Z,2.92
2023-10-22T22:46:43.619Z,1.83
2023-10-22T22:49:10.886Z,1.95
2023-10-22T22:51:38.223Z,2.08
2023-10-22T22:54:05.039Z,2.97
2023-10-22T22:56:33.160Z,1.73
2023-10-22T22:59:00.086Z,2.05
2023-10-22T23:01:27.050Z,2.20
2023-10-22T23:03:54.005Z,2.03
2023-10-22T23:06:21.042Z,1.70
2023-10-22T23:08:47.957Z,2.00
2023-10-22T23:11:17.056Z,2.60
2023-10-22T23:13:43.917Z,1.88
2023-10-22T23:16:10.786Z,1.58
2023-10-22T23:18:37.762Z,1.67
2023-10-22T23:21:04.649Z,1.60
2023-10-22T23:23:31.454Z,3.08
2023-10-22T23:25:58.296Z,1.90
2023-10-22T23:28:25.149Z,1.52
2023-10-22T23:30:52.128Z,1.73
2023-10-22T23:33:22.119Z,1.33
2023-10-22T23:35:49.445Z,2.58
2023-10-22T23:38:16.248Z,1.30
2023-10-22T23:41:06.554Z,1.23
2023-10-22T23:43:52.822Z,1.50
2023-10-22T23:46:20.649Z,2.13
2023-10-22T23:48:50.317Z,1.67
2023-10-22T23:51:19.795Z,2.40
2023-10-22T23:53:46.624Z,1.52
2023-10-22T23:56:13.432Z,1.50
2023-10-22T23:58:40.158Z,1.58
